createdAt,value
2022-07-29T00:01:19.176Z,27.25
2022-07-29T00:03:21.466Z,27.21
2022-07-29T00:05:23.061Z,27.20
2022-07-29T00:07:24.876Z,27.20
2022-07-29T00:09:26.461Z,27.17
2022-07-29T00:11:28.170Z,27.14
2022-07-29T00:13:32.537Z,27.16
2022-07-29T00:15:34.977Z,27.14
2022-07-29T00:17:36.554Z,27.12
2022-07-29T00:19:38.207Z,27.12
2022-07-29T00:21:39.808Z,27.11
2022-07-29T00:23:41.786Z,27.06
2022-07-29T00:25:43.468Z,27.02
2022-07-29T00:27:45.028Z,26.98
2022-07-29T00:29:48.173Z,26.90
2022-07-29T00:31:49.968Z,26.82
2022-07-29T00:33:51.599Z,26.80
2022-07-29T00:35:53.174Z,26.80
2022-07-29T00:37:56.666Z,26.77
2022-07-29T00:39:58.283Z,26.75
2022-07-29T00:41:59.848Z,26.72
2022-07-29T00:44:01.488Z,26.68
2022-07-29T00:46:04.581Z,26.67
2022-07-29T00:48:06.887Z,26.67
2022-07-29T00:50:10.824Z,26.67
2022-07-29T00:52:12.755Z,26.64
2022-07-29T00:54:18.765Z,26.61
2022-07-29T00:56:20.863Z,26.61
2022-07-29T00:58:22.962Z,26.60
2022-07-29T01:00:26.635Z,26.62
2022-07-29T01:02:29.756Z,26.60
2022-07-29T01:04:32.753Z,26.59
2022-07-29T01:06:35.369Z,26.59
2022-07-29T01:08:38.997Z,26.58
2022-07-29T01:10:42.582Z,26.57
2022-07-29T01:12:45.898Z,26.55
2022-07-29T01:14:49.662Z,26.52
2022-07-29T01:16:55.925Z,26.52
2022-07-29T01:19:07.397Z,26.51
2022-07-29T01:21:28.707Z,26.45
2022-07-29T01:23:53.276Z,26.45
2022-07-29T01:26:20.289Z,26.43
2022-07-29T01:28:48.286Z,26.39
2022-07-29T01:30:54.184Z,26.34
2022-07-29T01:33:02.678Z,26.32
2022-07-29T01:35:07.415Z,26.31
2022-07-29T01:37:19.576Z,26.30
2022-07-29T01:39:26.815Z,26.30
2022-07-29T01:41:32.516Z,26.27
2022-07-29T01:43:40.511Z,26.21
2022-07-29T01:45:47.807Z,26.14
2022-07-29T01:47:57.825Z,26.06
2022-07-29T01:50:01.828Z,25.74
2022-07-29T01:52:08.493Z,25.56
2022-07-29T01:54:15.592Z,25.57
2022-07-29T01:56:19.465Z,25.56
2022-07-29T01:58:22.944Z,25.47
2022-07-29T02:00:26.171Z,25.31
2022-07-29T02:02:31.855Z,25.26
2022-07-29T02:04:37.298Z,25.44
2022-07-29T02:06:43.715Z,25.53
2022-07-29T02:08:47.325Z,25.51
2022-07-29T02:10:50.779Z,25.44
2022-07-29T02:12:54.838Z,25.42
2022-07-29T02:15:00.377Z,25.52
2022-07-29T02:17:03.179Z,25.60
2022-07-29T02:19:08.028Z,25.64
2022-07-29T02:21:14.777Z,25.67
2022-07-29T02:23:20.513Z,25.72
2022-07-29T02:25:23.726Z,25.79
2022-07-29T02:27:27.737Z,25.77
2022-07-29T02:29:31.031Z,25.77
2022-07-29T02:31:35.358Z,25.77
2022-07-29T02:33:38.460Z,25.79
2022-07-29T02:35:44.163Z,25.85
2022-07-29T02:37:47.695Z,25.85
2022-07-29T02:39:52.548Z,25.83
2022-07-29T02:42:00.103Z,25.85
2022-07-29T02:44:07.415Z,25.84
2022-07-29T02:46:29.171Z,25.85
2022-07-29T02:48:37.294Z,25.85
2022-07-29T02:50:49.681Z,25.87
2022-07-29T02:52:59.059Z,25.86
2022-07-29T02:55:03.493Z,25.83
2022-07-29T02:57:10.305Z,25.73
2022-07-29T02:59:14.229Z,25.63
2022-07-29T03:01:21.834Z,25.60
2022-07-29T03:03:29.138Z,25.33
2022-07-29T03:05:33.265Z,25.23
2022-07-29T03:07:37.823Z,25.27
2022-07-29T03:09:41.611Z,25.28
2022-07-29T03:11:50.658Z,25.30
2022-07-29T03:13:52.981Z,25.30
2022-07-29T03:15:56.197Z,25.26
2022-07-29T03:17:59.220Z,25.24
2022-07-29T03:20:01.719Z,25.23
2022-07-29T03:22:03.473Z,25.20
2022-07-29T03:24:10.547Z,25.15
2022-07-29T03:26:13.127Z,25.14
2022-07-29T03:28:14.864Z,24.99
2022-07-29T03:30:21.609Z,24.88
2022-07-29T03:32:25.320Z,24.79
2022-07-29T03:34:27.091Z,24.73
2022-07-29T03:36:28.689Z,24.88
2022-07-29T03:38:34.621Z,24.81
2022-07-29T03:40:42.782Z,24.90
2022-07-29T03:42:46.333Z,24.83
2022-07-29T03:44:49.780Z,24.88
2022-07-29T03:46:52.827Z,24.90
2022-07-29T03:48:59.313Z,24.85
2022-07-29T03:51:01.315Z,24.88
2022-07-29T03:53:03.541Z,24.90
2022-07-29T03:55:06.593Z,24.91
2022-07-29T03:57:12.240Z,24.89
2022-07-29T03:59:15.215Z,24.87
2022-07-29T04:01:17.431Z,24.88
2022-07-29T04:03:19.640Z,24.89
2022-07-29T04:05:21.254Z,24.91
2022-07-29T04:07:22.839Z,24.86
2022-07-29T04:09:24.401Z,24.82
2022-07-29T04:11:26.084Z,24.78
2022-07-29T04:13:29.140Z,24.83
2022-07-29T04:15:31.519Z,24.87
2022-07-29T04:17:33.615Z,24.88
2022-07-29T04:19:35.233Z,24.82
2022-07-29T04:21:38.341Z,24.86
2022-07-29T04:23:46.002Z,24.81
2022-07-29T04:25:54.889Z,24.79
2022-07-29T04:27:56.432Z,24.76
2022-07-29T04:29:59.548Z,24.79
2022-07-29T04:32:01.155Z,24.83
2022-07-29T04:34:02.711Z,24.84
2022-07-29T04:36:04.932Z,24.92
2022-07-29T04:38:26.535Z,24.96
2022-07-29T04:40:28.053Z,24.98
2022-07-29T04:42:29.798Z,24.94
2022-07-29T04:44:31.399Z,24.95
2022-07-29T04:46:40.312Z,24.98
2022-07-29T04:48:42.075Z,24.99
2022-07-29T04:50:43.705Z,25.05
2022-07-29T04:52:45.401Z,25.10
2022-07-29T04:54:47.003Z,25.16
2022-07-29T04:56:48.573Z,25.21
2022-07-29T04:58:50.594Z,25.22
2022-07-29T05:00:52.347Z,25.24
2022-07-29T05:02:55.550Z,25.31
2022-07-29T05:04:57.197Z,25.33
2022-07-29T05:06:59.615Z,25.34
2022-07-29T05:09:01.180Z,25.31
2022-07-29T05:11:11.617Z,25.32
2022-07-29T05:13:14.176Z,25.36
2022-07-29T05:15:15.748Z,25.35
2022-07-29T05:17:17.357Z,25.35
2022-07-29T05:19:20.310Z,25.36
2022-07-29T05:21:21.915Z,25.38
2022-07-29T05:23:23.582Z,25.39
2022-07-29T05:25:43.569Z,25.41
2022-07-29T05:27:46.029Z,25.33
2022-07-29T05:29:47.588Z,25.36
2022-07-29T05:31:49.231Z,25.38
2022-07-29T05:33:51.128Z,25.38
2022-07-29T05:35:57.312Z,25.38
2022-07-29T05:38:02.089Z,25.35
2022-07-29T05:40:04.581Z,25.34
2022-07-29T05:42:09.416Z,25.27
2022-07-29T05:44:10.999Z,25.27
2022-07-29T05:46:12.837Z,25.32
2022-07-29T05:48:14.385Z,25.35
2022-07-29T05:50:16.010Z,25.41
2022-07-29T05:52:19.124Z,25.46
2022-07-29T05:54:20.702Z,25.46
2022-07-29T05:56:22.332Z,25.45
2022-07-29T05:58:23.990Z,25.40
2022-07-29T06:00:25.661Z,25.38
2022-07-29T06:02:27.863Z,25.42
2022-07-29T06:04:29.574Z,25.44
2022-07-29T06:06:31.180Z,25.47
2022-07-29T06:08:34.162Z,25.50
2022-07-29T06:10:36.163Z,25.50
2022-07-29T06:12:37.745Z,25.48
2022-07-29T06:14:39.377Z,25.46
2022-07-29T06:16:41.053Z,25.50
2022-07-29T06:18:42.690Z,25.42
2022-07-29T06:20:44.508Z,25.48
2022-07-29T06:22:46.170Z,25.51
2022-07-29T06:24:49.192Z,25.63
2022-07-29T06:26:50.794Z,25.71
2022-07-29T06:28:52.360Z,25.77
2022-07-29T06:30:53.981Z,25.90
2022-07-29T06:32:55.849Z,26.14
2022-07-29T06:35:24.507Z,26.19
2022-07-29T06:37:19.092Z,26.17
2022-07-29T06:39:21.737Z,26.15
2022-07-29T06:41:24.747Z,26.25
2022-07-29T06:43:26.457Z,26.39
2022-07-29T06:45:28.652Z,26.45
2022-07-29T06:47:30.243Z,26.63
2022-07-29T06:49:34.400Z,26.61
2022-07-29T06:51:36.128Z,26.43
2022-07-29T06:53:38.418Z,26.46
2022-07-29T06:55:40.031Z,26.36
2022-07-29T06:57:42.988Z,26.42
2022-07-29T06:59:44.643Z,26.34
2022-07-29T07:01:46.350Z,26.37
2022-07-29T07:03:48.125Z,26.28
2022-07-29T07:05:49.989Z,26.33
2022-07-29T07:07:51.596Z,26.28
2022-07-29T07:09:54.335Z,26.31
2022-07-29T07:11:56.002Z,26.36
2022-07-29T07:14:03.034Z,26.52
2022-07-29T07:16:05.652Z,26.52
2022-07-29T07:18:07.988Z,26.53
2022-07-29T07:20:10.156Z,26.60
2022-07-29T07:22:11.863Z,26.75
2022-07-29T07:24:13.763Z,26.84
2022-07-29T07:26:15.584Z,26.62
2022-07-29T07:28:17.205Z,26.60
2022-07-29T07:30:20.134Z,26.55
2022-07-29T07:32:21.819Z,26.51
2022-07-29T07:34:28.167Z,26.59
2022-07-29T07:36:31.049Z,26.57
2022-07-29T07:38:32.695Z,26.64
2022-07-29T07:40:34.555Z,26.71
2022-07-29T07:42:36.218Z,26.79
2022-07-29T07:45:03.737Z,26.81
2022-07-29T07:47:12.299Z,26.79
2022-07-29T07:49:14.341Z,26.81
2022-07-29T07:51:16.224Z,26.80
2022-07-29T07:53:17.915Z,26.71
2022-07-29T07:55:19.928Z,26.62
2022-07-29T07:57:21.540Z,26.53
2022-07-29T07:59:23.135Z,26.51
2022-07-29T08:01:24.802Z,26.44
2022-07-29T08:03:27.826Z,26.41
2022-07-29T08:05:29.842Z,26.44
2022-07-29T08:07:31.680Z,26.44
2022-07-29T08:09:33.362Z,26.36
2022-07-29T08:11:37.683Z,26.45
2022-07-29T08:13:39.674Z,26.45
2022-07-29T08:15:41.628Z,26.49
2022-07-29T08:17:43.383Z,26.41
2022-07-29T08:19:46.384Z,26.42
2022-07-29T08:21:47.966Z,26.37
2022-07-29T08:23:54.350Z,26.38
2022-07-29T08:25:59.570Z,26.30
2022-07-29T08:28:01.176Z,26.28
2022-07-29T08:30:02.856Z,26.30
2022-07-29T08:32:05.444Z,26.29
2022-07-29T08:34:07.764Z,26.29
2022-07-29T08:36:10.844Z,26.32
2022-07-29T08:38:12.444Z,26.43
2022-07-29T08:40:14.448Z,26.53
2022-07-29T08:42:16.219Z,26.56
2022-07-29T08:44:17.901Z,26.62
2022-07-29T08:46:28.294Z,26.66
2022-07-29T08:48:30.354Z,26.66
2022-07-29T08:50:31.942Z,26.60
2022-07-29T08:52:37.678Z,26.73
2022-07-29T08:54:40.276Z,26.85
2022-07-29T08:56:42.011Z,27.00
2022-07-29T08:58:46.853Z,27.05
2022-07-29T09:00:56.086Z,27.10
2022-07-29T09:03:00.031Z,26.97
2022-07-29T09:05:02.730Z,27.02
2022-07-29T09:07:06.352Z,27.08
2022-07-29T09:09:09.823Z,27.11
2022-07-29T09:11:12.023Z,27.12
2022-07-29T09:13:13.598Z,27.12
2022-07-29T09:15:15.493Z,27.13
2022-07-29T09:17:17.232Z,27.20
2022-07-29T09:19:29.185Z,27.17
2022-07-29T09:21:41.768Z,27.23
2022-07-29T09:24:01.018Z,27.16
2022-07-29T09:26:06.306Z,27.27
2022-07-29T09:28:08.647Z,27.37
2022-07-29T09:30:14.803Z,27.37
2022-07-29T09:32:16.436Z,27.32
2022-07-29T09:34:23.528Z,27.31
2022-07-29T09:36:25.151Z,27.44
2022-07-29T09:38:26.894Z,27.54
2022-07-29T09:40:29.215Z,27.65
2022-07-29T09:42:32.264Z,27.71
2022-07-29T09:44:46.269Z,27.60
2022-07-29T09:46:56.141Z,27.58
2022-07-29T09:49:07.498Z,27.68
2022-07-29T09:51:20.675Z,27.73
2022-07-29T09:53:34.462Z,27.81
2022-07-29T09:55:47.750Z,27.89
2022-07-29T09:57:50.784Z,27.96
2022-07-29T09:59:59.841Z,28.05
2022-07-29T10:02:02.134Z,28.11
2022-07-29T10:04:04.279Z,28.17
2022-07-29T10:06:07.456Z,28.23
2022-07-29T10:08:10.223Z,28.28
2022-07-29T10:10:11.976Z,28.33
2022-07-29T10:12:14.744Z,28.33
2022-07-29T10:14:18.433Z,28.36
2022-07-29T10:16:20.124Z,28.36
2022-07-29T10:18:22.111Z,28.38
2022-07-29T10:20:24.433Z,28.42
2022-07-29T10:22:51.446Z,28.49
2022-07-29T10:24:47.841Z,28.55
2022-07-29T10:26:50.180Z,28.53
2022-07-29T10:28:51.902Z,28.60
2022-07-29T10:31:02.528Z,28.66
2022-07-29T10:33:18.816Z,28.66
2022-07-29T10:35:37.582Z,28.74
2022-07-29T10:38:04.636Z,28.78
2022-07-29T10:40:14.352Z,28.84
2022-07-29T10:42:33.527Z,28.92
2022-07-29T10:44:40.399Z,28.83
2022-07-29T10:46:44.636Z,28.88
2022-07-29T10:49:05.585Z,28.93
2022-07-29T10:51:09.668Z,28.94
2022-07-29T10:53:14.381Z,28.94
2022-07-29T10:55:34.456Z,28.89
2022-07-29T10:57:54.665Z,28.89
2022-07-29T11:00:31.651Z,28.97
2022-07-29T11:02:46.150Z,29.03
2022-07-29T11:05:01.129Z,29.04
2022-07-29T11:07:09.282Z,29.07
2022-07-29T11:09:20.233Z,29.00
2022-07-29T11:11:33.734Z,28.95
2022-07-29T11:13:50.342Z,28.94
2022-07-29T11:15:58.169Z,28.92
2022-07-29T11:18:14.790Z,28.96
2022-07-29T11:20:34.261Z,29.01
2022-07-29T11:22:45.905Z,29.09
2022-07-29T11:25:16.813Z,29.17
2022-07-29T11:27:20.618Z,29.23
2022-07-29T11:29:25.112Z,29.29
2022-07-29T11:31:38.731Z,29.35
2022-07-29T11:33:55.908Z,29.44
2022-07-29T11:36:09.915Z,29.54
2022-07-29T11:38:28.106Z,29.64
2022-07-29T11:40:30.171Z,29.71
2022-07-29T11:42:44.508Z,29.83
2022-07-29T11:44:56.357Z,29.99
2022-07-29T11:47:00.238Z,30.13
2022-07-29T11:49:09.229Z,30.38
2022-07-29T11:51:12.397Z,30.68
2022-07-29T11:53:15.387Z,30.83
2022-07-29T11:55:19.841Z,30.92
2022-07-29T11:57:22.227Z,30.86
2022-07-29T11:59:32.868Z,30.79
2022-07-29T12:01:35.872Z,30.80
2022-07-29T12:03:37.603Z,30.74
2022-07-29T12:05:48.267Z,30.80
2022-07-29T12:07:53.520Z,30.75
2022-07-29T12:09:56.968Z,30.77
2022-07-29T12:12:04.967Z,30.86
2022-07-29T12:14:07.007Z,30.87
2022-07-29T12:16:08.846Z,30.87
2022-07-29T12:18:18.590Z,30.85
2022-07-29T12:20:24.871Z,30.91
2022-07-29T12:22:28.624Z,31.07
2022-07-29T12:24:45.003Z,31.13
2022-07-29T12:26:53.989Z,31.11
2022-07-29T12:28:55.879Z,31.32
2022-07-29T12:30:58.391Z,31.79
2022-07-29T12:33:01.138Z,32.01
2022-07-29T12:35:07.647Z,32.09
2022-07-29T12:37:10.997Z,32.66
2022-07-29T12:39:14.118Z,33.06
2022-07-29T12:41:16.246Z,33.52
2022-07-29T12:43:19.746Z,33.78
2022-07-29T12:45:29.768Z,33.59
2022-07-29T12:47:31.467Z,33.69
2022-07-29T12:49:33.055Z,33.22
2022-07-29T12:51:40.759Z,33.45
2022-07-29T12:53:42.607Z,33.58
2022-07-29T12:55:49.654Z,33.30
2022-07-29T12:57:52.232Z,32.78
2022-07-29T13:00:01.445Z,33.23
2022-07-29T13:02:05.407Z,33.00
2022-07-29T13:04:07.046Z,33.66
2022-07-29T13:06:27.828Z,34.03
2022-07-29T13:08:29.728Z,34.14
2022-07-29T13:10:36.733Z,34.33
2022-07-29T13:12:56.056Z,34.57
2022-07-29T13:14:57.651Z,34.20
2022-07-29T13:17:05.299Z,34.11
2022-07-29T13:19:11.340Z,33.84
2022-07-29T13:21:15.206Z,33.47
2022-07-29T13:23:17.072Z,33.36
2022-07-29T13:25:25.497Z,32.91
2022-07-29T13:27:28.233Z,32.40
2022-07-29T13:29:31.738Z,32.56
2022-07-29T13:31:33.615Z,32.45
2022-07-29T13:33:35.269Z,32.50
2022-07-29T13:35:39.962Z,32.60
2022-07-29T13:37:42.180Z,32.64
2022-07-29T13:39:43.954Z,32.38
2022-07-29T13:41:55.326Z,32.32
2022-07-29T13:43:57.999Z,32.29
2022-07-29T13:46:01.066Z,32.40
2022-07-29T13:48:02.957Z,32.31
2022-07-29T13:50:06.770Z,32.30
2022-07-29T13:52:08.623Z,32.15
2022-07-29T13:54:10.390Z,31.98
2022-07-29T13:56:11.977Z,31.93
2022-07-29T13:58:13.623Z,31.92
2022-07-29T14:00:15.809Z,31.82
2022-07-29T14:02:18.807Z,31.85
2022-07-29T14:04:20.449Z,31.77
2022-07-29T14:06:22.528Z,31.71
2022-07-29T14:08:24.178Z,31.58
2022-07-29T14:10:26.944Z,31.48
2022-07-29T14:12:28.525Z,31.44
2022-07-29T14:14:30.361Z,31.35
2022-07-29T14:16:32.570Z,31.45
2022-07-29T14:18:35.701Z,31.48
2022-07-29T14:20:37.391Z,31.49
2022-07-29T14:22:42.327Z,31.48
2022-07-29T14:24:44.458Z,31.47
2022-07-29T14:26:46.735Z,31.48
2022-07-29T14:28:48.538Z,31.46
2022-07-29T14:30:50.181Z,31.42
2022-07-29T14:32:51.823Z,31.37
2022-07-29T14:34:54.726Z,31.38
2022-07-29T14:36:56.363Z,31.45
2022-07-29T14:38:58.097Z,31.35
2022-07-29T14:40:59.715Z,31.35
2022-07-29T14:43:01.362Z,31.32
2022-07-29T14:45:03.227Z,31.33
2022-07-29T14:47:07.577Z,31.21
2022-07-29T14:49:09.893Z,31.18
2022-07-29T14:51:12.876Z,31.25
2022-07-29T14:53:14.655Z,31.30
2022-07-29T14:55:20.222Z,31.33
2022-07-29T14:57:22.009Z,31.40
2022-07-29T14:59:23.791Z,31.41
2022-07-29T15:01:25.571Z,31.36
2022-07-29T15:03:27.448Z,31.30
2022-07-29T15:05:29.295Z,31.25
2022-07-29T15:07:32.319Z,31.24
2022-07-29T15:09:33.908Z,31.22
2022-07-29T15:11:41.946Z,31.23
2022-07-29T15:13:43.756Z,31.22
2022-07-29T15:15:45.347Z,31.10
2022-07-29T15:17:46.940Z,31.09
2022-07-29T15:19:48.574Z,31.06
2022-07-29T15:21:50.492Z,31.09
2022-07-29T15:23:53.516Z,31.09
2022-07-29T15:25:55.136Z,31.03
2022-07-29T15:28:00.975Z,31.02
2022-07-29T15:30:03.964Z,30.98
2022-07-29T15:32:06.574Z,30.99
2022-07-29T15:34:08.306Z,30.99
2022-07-29T15:36:09.918Z,30.93
2022-07-29T15:38:11.575Z,30.93
2022-07-29T15:40:14.744Z,30.91
2022-07-29T15:42:16.342Z,30.88
2022-07-29T15:44:21.010Z,30.89
2022-07-29T15:46:22.862Z,30.90
2022-07-29T15:48:24.544Z,30.89
2022-07-29T15:50:26.950Z,30.85
2022-07-29T15:52:28.546Z,30.88
2022-07-29T15:54:30.433Z,30.83
2022-07-29T15:56:33.383Z,30.85
2022-07-29T15:58:35.125Z,30.85
2022-07-29T16:00:36.790Z,30.88
2022-07-29T16:02:38.458Z,30.82
2022-07-29T16:04:40.025Z,30.83
2022-07-29T16:06:41.929Z,30.86
2022-07-29T16:08:43.920Z,30.83
2022-07-29T16:10:45.563Z,30.80
2022-07-29T16:12:48.576Z,30.77
2022-07-29T16:14:51.507Z,30.76
2022-07-29T16:16:54.146Z,30.67
2022-07-29T16:18:55.736Z,30.64
2022-07-29T16:20:57.405Z,30.63
2022-07-29T16:22:59.012Z,30.61
2022-07-29T16:25:00.590Z,30.63
2022-07-29T16:27:02.367Z,30.61
2022-07-29T16:29:05.377Z,30.61
2022-07-29T16:31:07.071Z,30.61
2022-07-29T16:33:08.688Z,30.63
2022-07-29T16:35:10.334Z,30.63
2022-07-29T16:37:11.968Z,30.62
2022-07-29T16:39:13.591Z,30.57
2022-07-29T16:41:15.616Z,30.59
2022-07-29T16:43:17.337Z,30.58
2022-07-29T16:45:21.192Z,30.52
2022-07-29T16:47:23.332Z,30.39
2022-07-29T16:49:27.310Z,30.13
2022-07-29T16:51:28.976Z,29.83
2022-07-29T16:53:30.737Z,29.85
2022-07-29T16:55:32.381Z,29.94
2022-07-29T16:57:33.977Z,29.92
2022-07-29T16:59:35.543Z,29.95
2022-07-29T17:01:46.652Z,29.79
2022-07-29T17:03:48.342Z,29.78
2022-07-29T17:05:50.485Z,29.81
2022-07-29T17:07:55.496Z,29.78
2022-07-29T17:10:00.672Z,29.78
2022-07-29T17:12:05.998Z,29.71
2022-07-29T17:14:07.698Z,29.63
2022-07-29T17:16:10.675Z,29.62
2022-07-29T17:18:13.692Z,29.38
2022-07-29T17:20:17.649Z,29.20
2022-07-29T17:22:19.735Z,29.17
2022-07-29T17:24:21.314Z,29.11
2022-07-29T17:26:22.958Z,29.12
2022-07-29T17:28:24.755Z,29.07
2022-07-29T17:30:26.525Z,29.11
2022-07-29T17:32:28.258Z,29.12
2022-07-29T17:34:34.411Z,29.11
2022-07-29T17:36:36.154Z,29.09
2022-07-29T17:38:37.772Z,29.08
2022-07-29T17:40:39.411Z,29.04
2022-07-29T17:42:40.963Z,29.05
2022-07-29T17:44:42.631Z,28.96
2022-07-29T17:46:44.376Z,28.90
2022-07-29T17:48:46.103Z,28.82
2022-07-29T17:50:50.499Z,28.72
2022-07-29T17:52:52.144Z,28.69
2022-07-29T17:54:53.733Z,28.58
2022-07-29T17:56:55.698Z,28.63
2022-07-29T17:58:57.472Z,28.66
2022-07-29T18:00:59.297Z,28.73
2022-07-29T18:03:01.156Z,28.73
2022-07-29T18:05:03.693Z,28.68
2022-07-29T18:07:06.619Z,28.66
2022-07-29T18:09:12.227Z,28.62
2022-07-29T18:11:14.721Z,28.60
2022-07-29T18:13:16.735Z,28.60
2022-07-29T18:15:18.568Z,28.57
2022-07-29T18:17:20.216Z,28.54
2022-07-29T18:19:21.887Z,28.50
2022-07-29T18:21:43.747Z,28.54
2022-07-29T18:23:46.573Z,28.40
2022-07-29T18:25:48.229Z,28.34
2022-07-29T18:27:50.009Z,28.39
2022-07-29T18:29:52.148Z,28.42
2022-07-29T18:31:53.737Z,28.40
2022-07-29T18:33:59.871Z,28.36
2022-07-29T18:36:07.656Z,28.31
2022-07-29T18:38:13.784Z,28.34
2022-07-29T18:40:16.798Z,28.31
2022-07-29T18:42:18.467Z,28.25
2022-07-29T18:44:21.960Z,28.26
2022-07-29T18:46:25.454Z,28.18
2022-07-29T18:48:27.354Z,28.27
2022-07-29T18:50:29.940Z,28.22
2022-07-29T18:52:31.857Z,28.26
2022-07-29T18:54:33.547Z,28.21
2022-07-29T18:56:36.716Z,28.17
2022-07-29T18:58:38.342Z,28.10
2022-07-29T19:00:40.007Z,28.09
2022-07-29T19:02:43.299Z,27.98
2022-07-29T19:04:45.074Z,27.92
2022-07-29T19:06:46.792Z,27.81
2022-07-29T19:08:48.394Z,27.81
2022-07-29T19:10:49.981Z,27.84
2022-07-29T19:12:52.953Z,27.80
2022-07-29T19:14:54.607Z,27.79
2022-07-29T19:16:56.577Z,27.70
2022-07-29T19:18:58.469Z,27.68
2022-07-29T19:21:00.077Z,27.65
2022-07-29T19:23:01.772Z,27.67
2022-07-29T19:25:03.876Z,27.70
2022-07-29T19:27:05.490Z,27.70
2022-07-29T19:29:08.533Z,27.75
2022-07-29T19:31:10.188Z,27.90
2022-07-29T19:33:11.829Z,27.86
2022-07-29T19:35:13.499Z,27.78
2022-07-29T19:37:15.118Z,27.64
2022-07-29T19:39:16.798Z,27.55
2022-07-29T19:41:18.589Z,27.62
2022-07-29T19:43:51.924Z,27.71
2022-07-29T19:45:43.257Z,27.86
2022-07-29T19:47:44.903Z,27.82
2022-07-29T19:49:46.547Z,27.79
2022-07-29T19:51:48.162Z,27.93
2022-07-29T19:53:50.095Z,28.06
2022-07-29T19:55:52.036Z,28.12
2022-07-29T19:57:53.698Z,28.13
2022-07-29T19:59:55.356Z,28.13
2022-07-29T20:01:59.348Z,28.17
2022-07-29T20:04:01.053Z,28.03
2022-07-29T20:06:02.700Z,27.89
2022-07-29T20:08:04.846Z,27.99
2022-07-29T20:10:08.574Z,27.91
2022-07-29T20:12:10.898Z,27.78
2022-07-29T20:14:12.562Z,27.76
2022-07-29T20:16:14.251Z,27.71
2022-07-29T20:18:17.318Z,27.86
2022-07-29T20:20:19.393Z,27.83
2022-07-29T20:22:21.511Z,27.79
2022-07-29T20:24:23.421Z,27.83
2022-07-29T20:26:25.044Z,27.78
2022-07-29T20:28:26.790Z,27.68
2022-07-29T20:30:28.783Z,27.55
2022-07-29T20:32:31.234Z,27.54
2022-07-29T20:34:34.215Z,27.64
2022-07-29T20:36:36.442Z,27.72
2022-07-29T20:38:38.120Z,27.69
2022-07-29T20:40:39.784Z,27.54
2022-07-29T20:42:41.500Z,27.34
2022-07-29T20:44:43.350Z,27.34
2022-07-29T20:46:45.292Z,27.44
2022-07-29T20:48:46.984Z,27.55
2022-07-29T20:50:50.236Z,27.62
2022-07-29T20:52:52.162Z,27.65
2022-07-29T20:54:53.764Z,27.66
2022-07-29T20:56:55.467Z,27.65
2022-07-29T20:58:57.202Z,27.59
2022-07-29T21:00:58.829Z,27.44
2022-07-29T21:03:01.634Z,27.17
2022-07-29T21:05:03.698Z,27.00
2022-07-29T21:07:09.737Z,26.88
2022-07-29T21:09:11.348Z,26.79
2022-07-29T21:11:13.031Z,26.76
2022-07-29T21:13:14.782Z,26.83
2022-07-29T21:15:16.486Z,26.88
2022-07-29T21:17:18.343Z,26.98
2022-07-29T21:19:22.894Z,26.92
2022-07-29T21:21:24.540Z,26.93
2022-07-29T21:23:28.187Z,26.86
2022-07-29T21:25:29.765Z,26.81
2022-07-29T21:27:31.677Z,26.67
2022-07-29T21:29:33.289Z,26.67
2022-07-29T21:31:36.138Z,26.67
2022-07-29T21:33:39.742Z,26.61
2022-07-29T21:36:06.280Z,26.51
2022-07-29T21:38:03.481Z,26.52
2022-07-29T21:40:08.253Z,26.49
2022-07-29T21:42:09.942Z,26.45
2022-07-29T21:44:11.518Z,26.48
2022-07-29T21:46:13.190Z,26.44
2022-07-29T21:48:14.815Z,26.49
2022-07-29T21:50:16.394Z,26.55
2022-07-29T21:52:20.564Z,26.60
2022-07-29T21:54:22.625Z,26.62
2022-07-29T21:56:27.514Z,26.51
2022-07-29T21:58:29.607Z,26.54
2022-07-29T22:00:31.700Z,26.63
2022-07-29T22:02:33.416Z,26.71
2022-07-29T22:04:35.150Z,26.67
2022-07-29T22:06:36.978Z,26.71
2022-07-29T22:08:38.788Z,26.73
2022-07-29T22:10:40.485Z,26.78
2022-07-29T22:12:43.720Z,26.78
2022-07-29T22:14:45.376Z,26.61
2022-07-29T22:16:48.801Z,26.54
2022-07-29T22:18:50.411Z,26.49
2022-07-29T22:20:52.096Z,26.41
2022-07-29T22:22:53.978Z,26.47
2022-07-29T22:24:55.581Z,26.57
2022-07-29T22:26:57.386Z,26.63
2022-07-29T22:29:00.639Z,26.67
2022-07-29T22:31:02.265Z,26.71
2022-07-29T22:33:04.132Z,26.74
2022-07-29T22:35:06.953Z,26.79
2022-07-29T22:37:11.017Z,26.84
2022-07-29T22:39:15.610Z,26.84
2022-07-29T22:41:17.892Z,26.82
2022-07-29T22:43:19.704Z,26.78
2022-07-29T22:45:22.890Z,26.78
2022-07-29T22:47:46.468Z,26.81
2022-07-29T22:49:46.081Z,26.81
2022-07-29T22:51:47.712Z,26.82
2022-07-29T22:53:49.402Z,26.82
2022-07-29T22:55:51.068Z,26.82
2022-07-29T22:57:52.704Z,26.83
2022-07-29T22:59:54.370Z,26.80
2022-07-29T23:01:57.410Z,26.76
2022-07-29T23:03:59.197Z,26.72
2022-07-29T23:06:01.105Z,26.64
2022-07-29T23:08:02.782Z,26.66
2022-07-29T23:10:05.643Z,26.63
2022-07-29T23:12:08.190Z,26.61
2022-07-29T23:14:09.846Z,26.59
2022-07-29T23:16:11.638Z,26.51
2022-07-29T23:18:20.733Z,26.47
2022-07-29T23:20:22.361Z,26.47
2022-07-29T23:22:23.968Z,26.49
2022-07-29T23:24:25.589Z,26.52
2022-07-29T23:26:27.242Z,26.53
2022-07-29T23:28:28.802Z,26.53
2022-07-29T23:30:30.557Z,26.48
2022-07-29T23:32:32.213Z,26.49
2022-07-29T23:34:35.185Z,26.56
2022-07-29T23:36:36.799Z,26.61
2022-07-29T23:38:40.975Z,26.70
2022-07-29T23:40:42.491Z,26.62
2022-07-29T23:42:44.319Z,26.52
2022-07-29T23:44:45.994Z,26.46
2022-07-29T23:46:47.628Z,26.47
2022-07-29T23:48:49.512Z,26.45
2022-07-29T23:50:52.594Z,26.41
2022-07-29T23:52:54.179Z,26.18
2022-07-29T23:54:55.777Z,26.01
2022-07-29T23:57:17.368Z,25.84
2022-07-29T23:59:18.947Z,25.72
